sensor_id;sensor_type;location;lat;lon;timestamp;pressure;altitude;pressure_sealevel;temperature;humidity
64679;BME280;51094;53.864;27.676;2023-07-24T00:01:52;98580.34;;;18.17;62.76
64679;BME280;51094;53.864;27.676;2023-07-24T00:04:19;98427.94;;;17.22;62.29
64679;BME280;51094;53.864;27.676;2023-07-24T00:06:46;98576.75;;;18.10;62.74
64679;BME280;51094;53.864;27.676;2023-07-24T00:09:12;98573.78;;;18.13;62.49
64679;BME280;51094;53.864;27.676;2023-07-24T00:11:39;98578.63;;;18.24;62.18
64679;BME280;51094;53.864;27.676;2023-07-24T00:14:06;98568.41;;;18.29;62.31
64679;BME280;51094;53.864;27.676;2023-07-24T00:16:33;98564.25;;;18.35;61.90
64679;BME280;51094;53.864;27.676;2023-07-24T00:19:00;98516.13;;;18.03;61.81
64679;BME280;51094;53.864;27.676;2023-07-24T00:21:27;98505.47;;;17.97;61.66
64679;BME280;51094;53.864;27.676;2023-07-24T00:23:54;98530.53;;;18.15;61.37
64679;BME280;51094;53.864;27.676;2023-07-24T00:26:20;98561.47;;;18.36;61.64
64679;BME280;51094;53.864;27.676;2023-07-24T00:28:47;98506.06;;;18.07;61.73
64679;BME280;51094;53.864;27.676;2023-07-24T00:31:14;98305.69;;;16.73;61.48
64679;BME280;51094;53.864;27.676;2023-07-24T00:33:43;98573.44;;;18.39;61.48
64679;BME280;51094;53.864;27.676;2023-07-24T00:36:10;98516.25;;;18.10;61.25
64679;BME280;51094;53.864;27.676;2023-07-24T00:38:39;98570.66;;;18.40;61.45
64679;BME280;51094;53.864;27.676;2023-07-24T00:41:06;98484.97;;;17.84;61.63
64679;BME280;51094;53.864;27.676;2023-07-24T00:43:32;98520.69;;;18.09;61.74
64679;BME280;51094;53.864;27.676;2023-07-24T00:46:01;98553.25;;;18.31;61.65
64679;BME280;51094;53.864;27.676;2023-07-24T00:48:29;98478.78;;;17.77;61.75
64679;BME280;51094;53.864;27.676;2023-07-24T00:50:56;98550.63;;;18.31;61.78
64679;BME280;51094;53.864;27.676;2023-07-24T00:53:23;98541.75;;;18.32;61.89
64679;BME280;51094;53.864;27.676;2023-07-24T00:55:50;98437.94;;;17.58;61.74
64679;BME280;51094;53.864;27.676;2023-07-24T00:58:18;98379.34;;;17.18;61.61
64679;BME280;51094;53.864;27.676;2023-07-24T01:00:46;98531.38;;;18.08;62.13
64679;BME280;51094;53.864;27.676;2023-07-24T01:03:13;98492.84;;;17.92;62.31
64679;BME280;51094;53.864;27.676;2023-07-24T01:05:40;98460.66;;;17.82;62.27
64679;BME280;51094;53.864;27.676;2023-07-24T01:08:08;98520.91;;;18.22;62.52
64679;BME280;51094;53.864;27.676;2023-07-24T01:10:34;98498.41;;;18.20;62.11
64679;BME280;51094;53.864;27.676;2023-07-24T01:13:14;98487.31;;;18.10;61.98
64679;BME280;51094;53.864;27.676;2023-07-24T01:15:48;98407.66;;;17.39;62.08
64679;BME280;51094;53.864;27.676;2023-07-24T01:18:17;98513.31;;;18.05;62.44
64679;BME280;51094;53.864;27.676;2023-07-24T01:20:49;98506.06;;;18.07;62.47
64679;BME280;51094;53.864;27.676;2023-07-24T01:23:29;98466.06;;;17.88;62.43
64679;BME280;51094;53.864;27.676;2023-07-24T01:26:05;98484.84;;;18.08;62.32
64679;BME280;51094;53.864;27.676;2023-07-24T01:28:33;98466.34;;;17.93;62.36
64679;BME280;51094;53.864;27.676;2023-07-24T01:31:00;98455.59;;;17.80;62.18
64679;BME280;51094;53.864;27.676;2023-07-24T01:33:27;98524.97;;;18.10;62.23
64679;BME280;51094;53.864;27.676;2023-07-24T01:35:57;98504.31;;;17.99;62.44
64679;BME280;51094;53.864;27.676;2023-07-24T01:38:25;98524.09;;;18.18;62.35
64679;BME280;51094;53.864;27.676;2023-07-24T01:40:54;98480.16;;;17.95;62.51
64679;BME280;51094;53.864;27.676;2023-07-24T01:43:22;98521.56;;;18.24;62.31
64679;BME280;51094;53.864;27.676;2023-07-24T01:45:49;98490.97;;;18.01;62.20
64679;BME280;51094;53.864;27.676;2023-07-24T01:48:16;98502.09;;;18.11;62.56
64679;BME280;51094;53.864;27.676;2023-07-24T01:50:42;98492.88;;;18.15;62.43
64679;BME280;51094;53.864;27.676;2023-07-24T01:53:10;98516.94;;;18.26;62.12
64679;BME280;51094;53.864;27.676;2023-07-24T01:55:36;98409.75;;;17.44;62.22
64679;BME280;51094;53.864;27.676;2023-07-24T01:58:04;98517.47;;;18.22;62.27
64679;BME280;51094;53.864;27.676;2023-07-24T02:00:30;98477.56;;;17.87;62.20
64679;BME280;51094;53.864;27.676;2023-07-24T02:02:57;98526.00;;;18.24;62.45
64679;BME280;51094;53.864;27.676;2023-07-24T02:05:25;98512.63;;;18.11;61.97
64679;BME280;51094;53.864;27.676;2023-07-24T02:07:52;98524.28;;;18.16;62.52
64679;BME280;51094;53.864;27.676;2023-07-24T02:10:19;98546.13;;;18.17;62.63
64679;BME280;51094;53.864;27.676;2023-07-24T02:12:47;98517.03;;;18.18;62.90
64679;BME280;51094;53.864;27.676;2023-07-24T02:15:13;98376.22;;;17.23;62.64
64679;BME280;51094;53.864;27.676;2023-07-24T02:17:40;98527.25;;;18.13;62.82
64679;BME280;51094;53.864;27.676;2023-07-24T02:20:10;98503.56;;;17.82;62.98
64679;BME280;51094;53.864;27.676;2023-07-24T02:22:36;98507.91;;;17.75;63.00
64679;BME280;51094;53.864;27.676;2023-07-24T02:25:05;98538.50;;;17.99;63.23
64679;BME280;51094;53.864;27.676;2023-07-24T02:27:32;98519.97;;;17.92;63.25
64679;BME280;51094;53.864;27.676;2023-07-24T02:30:01;98542.78;;;18.00;62.92
64679;BME280;51094;53.864;27.676;2023-07-24T02:32:29;98540.53;;;17.89;63.00
64679;BME280;51094;53.864;27.676;2023-07-24T02:34:56;98541.88;;;17.77;63.40
64679;BME280;51094;53.864;27.676;2023-07-24T02:37:23;98547.50;;;17.74;63.88
64679;BME280;51094;53.864;27.676;2023-07-24T02:39:51;98519.63;;;17.56;63.89
64679;BME280;51094;53.864;27.676;2023-07-24T02:42:19;98523.38;;;17.62;63.95
64679;BME280;51094;53.864;27.676;2023-07-24T02:44:46;98487.59;;;17.53;63.74
64679;BME280;51094;53.864;27.676;2023-07-24T02:47:13;98458.53;;;17.46;63.68
64679;BME280;51094;53.864;27.676;2023-07-24T02:49:39;98456.72;;;17.47;63.47
64679;BME280;51094;53.864;27.676;2023-07-24T02:52:06;98516.69;;;17.90;63.39
64679;BME280;51094;53.864;27.676;2023-07-24T02:54:33;98536.34;;;18.03;63.43
64679;BME280;51094;53.864;27.676;2023-07-24T02:57:00;98530.25;;;18.02;63.55
64679;BME280;51094;53.864;27.676;2023-07-24T02:59:27;98489.44;;;17.83;63.64
64679;BME280;51094;53.864;27.676;2023-07-24T03:01:54;98521.72;;;18.00;63.74
64679;BME280;51094;53.864;27.676;2023-07-24T03:04:20;98521.72;;;18.00;63.95
64679;BME280;51094;53.864;27.676;2023-07-24T03:06:48;98519.28;;;17.99;64.00
64679;BME280;51094;53.864;27.676;2023-07-24T03:09:15;98490.72;;;17.87;63.99
64679;BME280;51094;53.864;27.676;2023-07-24T03:11:42;98498.22;;;17.99;64.47
64679;BME280;51094;53.864;27.676;2023-07-24T03:14:09;98487.78;;;17.82;64.61
64679;BME280;51094;53.864;27.676;2023-07-24T03:16:35;98494.00;;;17.89;64.92
64679;BME280;51094;53.864;27.676;2023-07-24T03:19:02;98458.16;;;17.66;65.32
64679;BME280;51094;53.864;27.676;2023-07-24T03:21:29;98498.13;;;17.84;65.61
64679;BME280;51094;53.864;27.676;2023-07-24T03:23:56;98455.75;;;17.48;65.81
64679;BME280;51094;53.864;27.676;2023-07-24T03:26:23;98483.28;;;17.68;66.23
64679;BME280;51094;53.864;27.676;2023-07-24T03:28:50;98453.09;;;17.48;66.40
64679;BME280;51094;53.864;27.676;2023-07-24T03:31:16;98477.84;;;17.61;66.86
64679;BME280;51094;53.864;27.676;2023-07-24T03:33:44;98501.84;;;17.67;67.45
64679;BME280;51094;53.864;27.676;2023-07-24T03:36:10;98441.09;;;17.22;67.92
64679;BME280;51094;53.864;27.676;2023-07-24T03:38:37;98470.72;;;17.39;68.46
64679;BME280;51094;53.864;27.676;2023-07-24T03:41:04;98441.22;;;17.29;68.94
64679;BME280;51094;53.864;27.676;2023-07-24T03:43:31;98477.22;;;17.59;69.25
64679;BME280;51094;53.864;27.676;2023-07-24T03:45:58;98487.22;;;17.72;69.29
64679;BME280;51094;53.864;27.676;2023-07-24T03:48:25;98467.25;;;17.47;69.32
64679;BME280;51094;53.864;27.676;2023-07-24T03:50:59;98507.78;;;17.69;69.73
64679;BME280;51094;53.864;27.676;2023-07-24T03:53:26;98488.53;;;17.68;70.04
64679;BME280;51094;53.864;27.676;2023-07-24T03:55:54;98402.34;;;17.16;70.03
64679;BME280;51094;53.864;27.676;2023-07-24T03:58:21;98481.13;;;17.72;69.89
64679;BME280;51094;53.864;27.676;2023-07-24T04:00:47;98478.69;;;17.70;69.53
64679;BME280;51094;53.864;27.676;2023-07-24T04:03:15;98473.59;;;17.69;69.97
64679;BME280;51094;53.864;27.676;2023-07-24T04:05:42;98481.13;;;17.72;70.05
64679;BME280;51094;53.864;27.676;2023-07-24T04:08:09;98476.03;;;17.70;69.66
64679;BME280;51094;53.864;27.676;2023-07-24T04:10:36;98452.09;;;17.57;69.71
64679;BME280;51094;53.864;27.676;2023-07-24T04:13:03;98457.84;;;17.52;69.41
64679;BME280;51094;53.864;27.676;2023-07-24T04:15:30;98417.09;;;17.25;69.55
64679;BME280;51094;53.864;27.676;2023-07-24T04:17:56;98417.03;;;17.34;69.78
64679;BME280;51094;53.864;27.676;2023-07-24T04:20:23;98471.81;;;17.53;69.78
64679;BME280;51094;53.864;27.676;2023-07-24T04:22:50;98384.69;;;16.94;69.86
64679;BME280;51094;53.864;27.676;2023-07-24T04:25:17;98427.78;;;17.24;70.21
64679;BME280;51094;53.864;27.676;2023-07-24T04:27:44;98474.66;;;17.43;70.33
64679;BME280;51094;53.864;27.676;2023-07-24T04:30:11;98483.94;;;17.70;70.62
64679;BME280;51094;53.864;27.676;2023-07-24T04:32:38;98382.66;;;17.12;70.14
64679;BME280;51094;53.864;27.676;2023-07-24T04:35:05;98442.69;;;17.71;70.61
64679;BME280;51094;53.864;27.676;2023-07-24T04:37:32;98488.66;;;18.06;70.23
64679;BME280;51094;53.864;27.676;2023-07-24T04:39:59;98466.56;;;18.15;69.65
64679;BME280;51094;53.864;27.676;2023-07-24T04:42:26;98456.84;;;18.15;69.76
64679;BME280;51094;53.864;27.676;2023-07-24T04:44:53;98410.84;;;17.88;69.19
64679;BME280;51094;53.864;27.676;2023-07-24T04:47:20;98451.59;;;18.15;69.45
64679;BME280;51094;53.864;27.676;2023-07-24T04:49:47;98390.09;;;17.71;69.23
64679;BME280;51094;53.864;27.676;2023-07-24T04:52:14;98445.44;;;18.00;69.31
64679;BME280;51094;53.864;27.676;2023-07-24T04:54:40;98410.78;;;17.74;69.10
64679;BME280;51094;53.864;27.676;2023-07-24T04:57:07;98446.06;;;17.79;69.22
64679;BME280;51094;53.864;27.676;2023-07-24T04:59:35;98442.44;;;17.80;69.53
64679;BME280;51094;53.864;27.676;2023-07-24T05:02:02;98439.94;;;17.87;69.59
64679;BME280;51094;53.864;27.676;2023-07-24T05:04:29;98454.69;;;17.96;69.45
64679;BME280;51094;53.864;27.676;2023-07-24T05:06:56;98386.41;;;17.49;69.08
64679;BME280;51094;53.864;27.676;2023-07-24T05:09:23;98381.47;;;17.54;69.56
64679;BME280;51094;53.864;27.676;2023-07-24T05:11:50;98363.69;;;17.56;69.54
64679;BME280;51094;53.864;27.676;2023-07-24T05:14:17;98433.22;;;18.07;69.35
64679;BME280;51094;53.864;27.676;2023-07-24T05:16:44;98447.81;;;18.33;69.13
64679;BME280;51094;53.864;27.676;2023-07-24T05:19:10;98449.56;;;18.40;68.65
64679;BME280;51094;53.864;27.676;2023-07-24T05:21:37;98398.22;;;18.07;68.44
64679;BME280;51094;53.864;27.676;2023-07-24T05:24:04;98433.09;;;18.23;67.61
64679;BME280;51094;53.864;27.676;2023-07-24T05:26:31;98325.97;;;17.49;67.48
64679;BME280;51094;53.864;27.676;2023-07-24T05:28:59;98357.44;;;17.65;67.62
64679;BME280;51094;53.864;27.676;2023-07-24T05:31:26;98398.16;;;17.92;68.21
64679;BME280;51094;53.864;27.676;2023-07-24T05:33:53;98395.41;;;17.85;68.33
64679;BME280;51094;53.864;27.676;2023-07-24T05:36:20;98455.13;;;18.22;68.51
64679;BME280;51094;53.864;27.676;2023-07-24T05:38:47;98399.53;;;17.80;69.05
64679;BME280;51094;53.864;27.676;2023-07-24T05:41:14;98461.50;;;18.28;69.58
64679;BME280;51094;53.864;27.676;2023-07-24T05:43:41;98431.09;;;17.80;69.50
64679;BME280;51094;53.864;27.676;2023-07-24T05:46:08;98468.69;;;18.34;69.55
64679;BME280;51094;53.864;27.676;2023-07-24T05:48:35;98468.03;;;18.17;69.86
64679;BME280;51094;53.864;27.676;2023-07-24T05:51:02;98455.53;;;18.57;69.72
64679;BME280;51094;53.864;27.676;2023-07-24T05:53:29;98468.63;;;18.65;69.74
64679;BME280;51094;53.864;27.676;2023-07-24T05:55:59;98458.25;;;18.64;69.26
64679;BME280;51094;53.864;27.676;2023-07-24T05:58:27;98435.34;;;18.49;69.30
64679;BME280;51094;53.864;27.676;2023-07-24T06:00:54;98408.16;;;18.34;69.33
64679;BME280;51094;53.864;27.676;2023-07-24T06:03:23;98428.00;;;18.59;69.10
64679;BME280;51094;53.864;27.676;2023-07-24T06:05:54;98450.03;;;18.81;69.48
64679;BME280;51094;53.864;27.676;2023-07-24T06:08:22;98408.06;;;18.80;68.65
64679;BME280;51094;53.864;27.676;2023-07-24T06:10:50;98445.03;;;19.16;68.36
64679;BME280;51094;53.864;27.676;2023-07-24T06:13:18;98409.19;;;19.00;67.56
64679;BME280;51094;53.864;27.676;2023-07-24T06:15:49;98442.66;;;19.21;67.73
64679;BME280;51094;53.864;27.676;2023-07-24T06:18:16;98445.13;;;19.22;67.42
64679;BME280;51094;53.864;27.676;2023-07-24T06:20:43;98442.84;;;19.19;67.57
64679;BME280;51094;53.864;27.676;2023-07-24T06:23:10;98380.47;;;18.76;67.23
64679;BME280;51094;53.864;27.676;2023-07-24T06:25:37;98434.59;;;19.22;67.37
64679;BME280;51094;53.864;27.676;2023-07-24T06:28:04;98383.66;;;19.01;66.88
64679;BME280;51094;53.864;27.676;2023-07-24T06:30:31;98425.84;;;19.37;66.71
64679;BME280;51094;53.864;27.676;2023-07-24T06:32:58;98432.31;;;19.34;66.21
64679;BME280;51094;53.864;27.676;2023-07-24T06:35:25;98408.97;;;19.16;66.41
64679;BME280;51094;53.864;27.676;2023-07-24T06:37:52;98426.22;;;19.34;66.67
64679;BME280;51094;53.864;27.676;2023-07-24T06:40:19;98435.75;;;19.49;66.61
64679;BME280;51094;53.864;27.676;2023-07-24T06:42:46;98431.19;;;19.58;66.13
64679;BME280;51094;53.864;27.676;2023-07-24T06:45:13;98394.59;;;19.34;65.98
64679;BME280;51094;53.864;27.676;2023-07-24T06:47:40;98422.28;;;19.59;66.13
64679;BME280;51094;53.864;27.676;2023-07-24T06:50:07;98431.97;;;19.73;66.13
64679;BME280;51094;53.864;27.676;2023-07-24T06:52:34;98458.75;;;19.91;65.61
64679;BME280;51094;53.864;27.676;2023-07-24T06:55:01;98438.78;;;20.04;65.38
64679;BME280;51094;53.864;27.676;2023-07-24T06:57:28;98438.41;;;20.07;64.88
64679;BME280;51094;53.864;27.676;2023-07-24T06:59:55;98440.16;;;20.00;64.27
64679;BME280;51094;53.864;27.676;2023-07-24T07:02:22;98435.75;;;19.85;64.45
64679;BME280;51094;53.864;27.676;2023-07-24T07:04:50;98442.66;;;20.08;64.18
64679;BME280;51094;53.864;27.676;2023-07-24T07:07:16;98296.78;;;19.28;64.26
64679;BME280;51094;53.864;27.676;2023-07-24T07:09:44;98435.38;;;20.31;63.82
64679;BME280;51094;53.864;27.676;2023-07-24T07:12:10;98431.22;;;20.43;64.00
64679;BME280;51094;53.864;27.676;2023-07-24T07:14:37;98338.31;;;20.05;63.44
64679;BME280;51094;53.864;27.676;2023-07-24T07:17:04;98414.09;;;20.61;63.21
64679;BME280;51094;53.864;27.676;2023-07-24T07:19:31;98439.84;;;20.86;63.04
64679;BME280;51094;53.864;27.676;2023-07-24T07:21:59;98434.31;;;21.09;62.16
64679;BME280;51094;53.864;27.676;2023-07-24T07:24:26;98383.78;;;20.91;60.83
64679;BME280;51094;53.864;27.676;2023-07-24T07:26:53;98332.56;;;20.51;60.79
64679;BME280;51094;53.864;27.676;2023-07-24T07:29:20;98413.78;;;21.11;59.95
64679;BME280;51094;53.864;27.676;2023-07-24T07:31:47;98415.66;;;21.17;59.93
64679;BME280;51094;53.864;27.676;2023-07-24T07:34:14;98388.44;;;21.23;60.42
64679;BME280;51094;53.864;27.676;2023-07-24T07:36:41;98408.03;;;21.36;58.87
64679;BME280;51094;53.864;27.676;2023-07-24T07:39:08;98363.94;;;21.02;59.81
64679;BME280;51094;53.864;27.676;2023-07-24T07:41:36;98392.59;;;21.46;59.59
64679;BME280;51094;53.864;27.676;2023-07-24T07:44:03;98359.41;;;21.37;59.32
64679;BME280;51094;53.864;27.676;2023-07-24T07:46:30;98344.97;;;21.39;58.52
64679;BME280;51094;53.864;27.676;2023-07-24T07:48:58;98367.59;;;21.55;57.28
64679;BME280;51094;53.864;27.676;2023-07-24T07:51:25;98350.06;;;21.41;57.67
64679;BME280;51094;53.864;27.676;2023-07-24T07:53:53;98397.19;;;21.91;57.85
64679;BME280;51094;53.864;27.676;2023-07-24T07:56:19;98382.75;;;22.01;58.23
64679;BME280;51094;53.864;27.676;2023-07-24T07:58:46;98402.53;;;22.31;57.45
64679;BME280;51094;53.864;27.676;2023-07-24T08:01:13;98387.84;;;22.35;56.47
64679;BME280;51094;53.864;27.676;2023-07-24T08:03:40;98394.13;;;22.67;56.65
64679;BME280;51094;53.864;27.676;2023-07-24T08:06:08;98378.50;;;22.46;55.49
64679;BME280;51094;53.864;27.676;2023-07-24T08:08:35;98398.19;;;22.76;55.25
64679;BME280;51094;53.864;27.676;2023-07-24T08:11:05;98410.44;;;22.71;54.56
64679;BME280;51094;53.864;27.676;2023-07-24T08:13:34;98342.03;;;22.28;53.44
64679;BME280;51094;53.864;27.676;2023-07-24T08:16:01;98351.41;;;22.17;54.33
64679;BME280;51094;53.864;27.676;2023-07-24T08:18:30;98382.97;;;22.45;53.66
64679;BME280;51094;53.864;27.676;2023-07-24T08:20:57;98387.41;;;22.65;53.60
64679;BME280;51094;53.864;27.676;2023-07-24T08:23:24;98372.31;;;22.72;53.47
64679;BME280;51094;53.864;27.676;2023-07-24T08:25:55;98399.84;;;22.91;52.39
64679;BME280;51094;53.864;27.676;2023-07-24T08:28:22;98406.72;;;22.98;52.31
64679;BME280;51094;53.864;27.676;2023-07-24T08:30:59;98373.13;;;22.92;52.36
64679;BME280;51094;53.864;27.676;2023-07-24T08:33:29;98391.28;;;22.75;52.16
64679;BME280;51094;53.864;27.676;2023-07-24T08:36:01;98392.28;;;22.94;51.99
64679;BME280;51094;53.864;27.676;2023-07-24T08:38:28;98376.19;;;22.89;51.68
64679;BME280;51094;53.864;27.676;2023-07-24T08:41:12;98404.81;;;23.25;51.45
64679;BME280;51094;53.864;27.676;2023-07-24T08:43:41;98390.59;;;23.58;51.87
64679;BME280;51094;53.864;27.676;2023-07-24T08:46:09;98397.44;;;23.78;50.71
64679;BME280;51094;53.864;27.676;2023-07-24T08:48:38;98324.28;;;23.58;49.20
64679;BME280;51094;53.864;27.676;2023-07-24T08:51:08;98362.78;;;24.23;48.95
64679;BME280;51094;53.864;27.676;2023-07-24T08:53:37;98380.19;;;24.44;48.60
64679;BME280;51094;53.864;27.676;2023-07-24T08:56:10;98375.00;;;24.56;46.42
64679;BME280;51094;53.864;27.676;2023-07-24T08:58:37;98365.72;;;24.40;46.29
64679;BME280;51094;53.864;27.676;2023-07-24T09:01:07;98377.22;;;24.34;45.60
64679;BME280;51094;53.864;27.676;2023-07-24T09:03:35;98368.75;;;24.25;46.60
64679;BME280;51094;53.864;27.676;2023-07-24T09:06:03;98359.03;;;24.06;46.85
64679;BME280;51094;53.864;27.676;2023-07-24T09:08:41;98370.44;;;24.13;47.14
64679;BME280;51094;53.864;27.676;2023-07-24T09:11:09;98373.84;;;24.20;47.10
64679;BME280;51094;53.864;27.676;2023-07-24T09:13:37;98374.41;;;24.29;47.28
64679;BME280;51094;53.864;27.676;2023-07-24T09:16:05;98370.81;;;24.41;47.39
64679;BME280;51094;53.864;27.676;2023-07-24T09:18:42;98357.25;;;24.49;46.91
64679;BME280;51094;53.864;27.676;2023-07-24T09:21:10;98303.53;;;24.23;46.97
64679;BME280;51094;53.864;27.676;2023-07-24T09:23:40;98360.44;;;24.58;46.37
64679;BME280;51094;53.864;27.676;2023-07-24T09:26:07;98300.41;;;24.07;46.43
64679;BME280;51094;53.864;27.676;2023-07-24T09:28:35;98343.97;;;24.49;46.75
64679;BME280;51094;53.864;27.676;2023-07-24T09:31:03;98335.06;;;24.62;46.58
64679;BME280;51094;53.864;27.676;2023-07-24T09:33:39;98358.47;;;24.90;46.25
64679;BME280;51094;53.864;27.676;2023-07-24T09:36:08;98361.22;;;25.02;46.11
64679;BME280;51094;53.864;27.676;2023-07-24T09:38:39;98357.38;;;24.98;45.26
64679;BME280;51094;53.864;27.676;2023-07-24T09:41:07;98347.38;;;24.75;45.53
64679;BME280;51094;53.864;27.676;2023-07-24T09:43:34;98324.19;;;24.45;45.58
64679;BME280;51094;53.864;27.676;2023-07-24T09:46:07;98305.81;;;24.19;46.36
64679;BME280;51094;53.864;27.676;2023-07-24T09:48:35;98336.28;;;24.41;46.74
64679;BME280;51094;53.864;27.676;2023-07-24T09:51:08;98332.31;;;24.50;46.78
64679;BME280;51094;53.864;27.676;2023-07-24T09:53:45;98330.34;;;24.64;47.28
64679;BME280;51094;53.864;27.676;2023-07-24T09:56:17;98334.22;;;24.80;46.73
64679;BME280;51094;53.864;27.676;2023-07-24T09:58:44;98337.50;;;25.00;46.22
64679;BME280;51094;53.864;27.676;2023-07-24T10:01:31;98349.47;;;25.09;45.59
64679;BME280;51094;53.864;27.676;2023-07-24T10:04:01;98337.59;;;25.12;45.63
64679;BME280;51094;53.864;27.676;2023-07-24T10:06:30;98290.22;;;25.02;46.71
64679;BME280;51094;53.864;27.676;2023-07-24T10:08:59;98309.97;;;25.25;44.87
64679;BME280;51094;53.864;27.676;2023-07-24T10:11:26;98329.25;;;25.38;45.85
64679;BME280;51094;53.864;27.676;2023-07-24T10:13:54;98328.63;;;25.55;45.40
64679;BME280;51094;53.864;27.676;2023-07-24T10:16:21;98309.50;;;25.46;45.16
64679;BME280;51094;53.864;27.676;2023-07-24T10:18:48;98319.63;;;25.67;45.26
64679;BME280;51094;53.864;27.676;2023-07-24T10:21:16;98283.06;;;25.74;45.11
64679;BME280;51094;53.864;27.676;2023-07-24T10:23:45;98182.09;;;25.49;45.21
64679;BME280;51094;53.864;27.676;2023-07-24T10:26:15;98277.19;;;26.54;44.48
64679;BME280;51094;53.864;27.676;2023-07-24T10:28:46;98305.16;;;27.03;43.46
64679;BME280;51094;53.864;27.676;2023-07-24T10:31:22;98312.72;;;26.83;43.23
64679;BME280;51094;53.864;27.676;2023-07-24T10:33:51;98301.13;;;26.77;42.86
64679;BME280;51094;53.864;27.676;2023-07-24T10:36:19;98259.84;;;26.80;43.76
64679;BME280;51094;53.864;27.676;2023-07-24T10:38:55;98246.78;;;26.67;42.93
64679;BME280;51094;53.864;27.676;2023-07-24T10:41:34;98329.56;;;26.72;43.44
64679;BME280;51094;53.864;27.676;2023-07-24T10:44:02;98307.44;;;26.60;43.85
64679;BME280;51094;53.864;27.676;2023-07-24T10:46:39;98270.13;;;26.13;44.03
64679;BME280;51094;53.864;27.676;2023-07-24T10:49:08;98291.66;;;26.11;44.30
64679;BME280;51094;53.864;27.676;2023-07-24T10:51:35;98296.53;;;26.03;44.70
64679;BME280;51094;53.864;27.676;2023-07-24T10:54:05;98301.03;;;26.02;45.44
64679;BME280;51094;53.864;27.676;2023-07-24T10:56:32;98220.28;;;25.55;45.63
64679;BME280;51094;53.864;27.676;2023-07-24T10:59:04;98283.66;;;26.11;45.07
64679;BME280;51094;53.864;27.676;2023-07-24T11:01:32;98286.03;;;26.31;44.96
64679;BME280;51094;53.864;27.676;2023-07-24T11:04:00;98274.41;;;26.49;45.42
64679;BME280;51094;53.864;27.676;2023-07-24T11:06:27;98282.25;;;26.67;45.04
64679;BME280;51094;53.864;27.676;2023-07-24T11:08:56;98217.72;;;26.54;44.89
64679;BME280;51094;53.864;27.676;2023-07-24T11:11:34;98257.47;;;26.95;44.88
64679;BME280;51094;53.864;27.676;2023-07-24T11:14:03;98246.94;;;26.89;43.71
64679;BME280;51094;53.864;27.676;2023-07-24T11:16:30;98265.47;;;26.95;43.38
64679;BME280;51094;53.864;27.676;2023-07-24T11:19:00;98218.03;;;26.69;44.29
64679;BME280;51094;53.864;27.676;2023-07-24T11:21:27;98217.59;;;26.89;43.62
64679;BME280;51094;53.864;27.676;2023-07-24T11:23:56;98261.84;;;27.58;42.84
64679;BME280;51094;53.864;27.676;2023-07-24T11:26:24;98236.28;;;28.17;41.86
64679;BME280;51094;53.864;27.676;2023-07-24T11:28:52;98261.03;;;28.85;39.53
64679;BME280;51094;53.864;27.676;2023-07-24T11:31:19;98156.66;;;27.42;40.14
64679;BME280;51094;53.864;27.676;2023-07-24T11:33:48;98244.66;;;27.37;41.78
64679;BME280;51094;53.864;27.676;2023-07-24T11:36:15;98252.31;;;26.77;43.19
64679;BME280;51094;53.864;27.676;2023-07-24T11:38:47;98278.56;;;26.57;44.38
64679;BME280;51094;53.864;27.676;2023-07-24T11:41:16;98252.63;;;27.82;43.26
64679;BME280;51094;53.864;27.676;2023-07-24T11:43:49;98232.28;;;28.54;40.91
64679;BME280;51094;53.864;27.676;2023-07-24T11:46:27;98228.41;;;28.06;41.64
64679;BME280;51094;53.864;27.676;2023-07-24T11:48:55;98265.94;;;27.49;42.90
64679;BME280;51094;53.864;27.676;2023-07-24T11:51:25;98226.28;;;27.24;43.38
64679;BME280;51094;53.864;27.676;2023-07-24T11:54:05;98230.34;;;26.87;44.18
64679;BME280;51094;53.864;27.676;2023-07-24T11:56:32;98168.28;;;26.23;45.36
64679;BME280;51094;53.864;27.676;2023-07-24T11:59:10;98238.72;;;26.27;46.04
64679;BME280;51094;53.864;27.676;2023-07-24T12:01:39;98229.47;;;26.06;46.70
64679;BME280;51094;53.864;27.676;2023-07-24T12:04:07;98212.97;;;25.62;47.06
64679;BME280;51094;53.864;27.676;2023-07-24T12:06:35;98225.53;;;25.73;47.96
64679;BME280;51094;53.864;27.676;2023-07-24T12:09:03;98220.38;;;25.60;47.28
64679;BME280;51094;53.864;27.676;2023-07-24T12:11:42;98162.53;;;25.56;46.56
64679;BME280;51094;53.864;27.676;2023-07-24T12:14:31;98227.16;;;26.33;45.52
64679;BME280;51094;53.864;27.676;2023-07-24T12:17:02;98213.44;;;27.38;42.68
64679;BME280;51094;53.864;27.676;2023-07-24T12:19:28;98193.22;;;26.97;43.50
64679;BME280;51094;53.864;27.676;2023-07-24T12:21:55;98173.66;;;26.63;43.68
64679;BME280;51094;53.864;27.676;2023-07-24T12:24:22;98207.03;;;26.65;44.61
64679;BME280;51094;53.864;27.676;2023-07-24T12:26:50;98207.41;;;26.45;45.50
64679;BME280;51094;53.864;27.676;2023-07-24T12:29:16;98126.28;;;26.01;45.78
64679;BME280;51094;53.864;27.676;2023-07-24T12:31:43;98203.41;;;26.31;46.07
64679;BME280;51094;53.864;27.676;2023-07-24T12:34:10;98134.09;;;27.89;43.83
64679;BME280;51094;53.864;27.676;2023-07-24T12:36:37;98154.16;;;29.69;39.26
64679;BME280;51094;53.864;27.676;2023-07-24T12:39:04;98163.19;;;28.94;38.99
64679;BME280;51094;53.864;27.676;2023-07-24T12:41:31;98186.47;;;27.90;40.67
64679;BME280;51094;53.864;27.676;2023-07-24T12:43:59;98178.69;;;27.04;42.18
64679;BME280;51094;53.864;27.676;2023-07-24T12:46:27;98168.28;;;28.25;39.74
64679;BME280;51094;53.864;27.676;2023-07-24T12:48:53;98138.34;;;31.28;33.33
64679;BME280;51094;53.864;27.676;2023-07-24T12:51:20;98171.81;;;32.27;31.87
64679;BME280;51094;53.864;27.676;2023-07-24T12:53:47;98120.41;;;33.46;29.69
64679;BME280;51094;53.864;27.676;2023-07-24T12:56:34;98113.63;;;31.52;30.30